Terminal Aerodrome Forecast
Issued by NWS

Home | Current Version | Previous Version | Graphics & Text | Print | Product List | Glossary On
Versions: 1 2 3 4 5 6 7 8 9 10 11 12 13 14 15 16 17
000
FTUS45 KGGW 151720
TAFSDY
TAF
KSDY 151720Z 1518/1618 04007KT P6SM OVC015
     FM152000 10006KT P6SM SCT050
     FM160700 13008KT P6SM BKN190 WS020/15035KT
     FM161000 14008KT P6SM BKN150=

USA.gov is the U.S. government's official web portal to all federal, state and local government web resources and services.